createdAt,value
2023-03-16T00:52:42.863Z,53.5
2023-03-16T01:22:43.696Z,53.6
2023-03-16T01:52:44.131Z,53.6
2023-03-16T02:22:44.950Z,53.6
2023-03-16T02:52:45.369Z,53.8
2023-03-16T03:22:45.807Z,53.7
2023-03-16T03:52:46.244Z,53.7
2023-03-16T04:22:46.710Z,53.8
2023-03-16T04:52:47.218Z,53.8
2023-03-16T05:22:47.633Z,53.8
2023-03-16T06:22:58.807Z,53.7
2023-03-16T06:52:59.215Z,53.6
2023-03-16T07:22:59.663Z,53.5
2023-03-16T07:53:00.130Z,53.5
2023-03-16T08:23:00.606Z,53.6
2023-03-16T08:53:01.502Z,53.5
2023-03-16T09:23:01.913Z,53.4
2023-03-16T09:53:02.777Z,53.5
2023-03-16T10:23:03.450Z,53.4
2023-03-16T10:53:03.936Z,53.5
2023-03-16T11:23:04.361Z,53.5
2023-03-16T11:53:05.070Z,53.5
2023-03-16T12:23:05.541Z,53.7
2023-03-16T12:53:05.937Z,54
2023-03-16T13:53:17.330Z,53.5
2023-03-16T14:53:28.624Z,53.2
2023-03-16T15:23:29.382Z,53.3
2023-03-16T15:53:31.472Z,53.2
2023-03-16T16:23:36.259Z,53
2023-03-16T16:53:36.724Z,53
2023-03-16T17:23:37.160Z,53
2023-03-16T17:53:38.066Z,53.1
2023-03-16T18:23:38.557Z,53.2
2023-03-16T18:53:38.975Z,53.1
2023-03-16T19:23:39.426Z,53.2
2023-03-16T20:23:50.454Z,53.2
2023-03-16T21:24:03.468Z,53.2
2023-03-16T21:54:03.963Z,53.3
2023-03-16T22:24:04.381Z,53.2
2023-03-16T22:54:05.285Z,53.3
2023-03-16T23:24:05.741Z,53.3
2023-03-16T23:54:06.353Z,53.4
